Time;durP1;ratioP1;P1;durP2;ratioP2;P2;SDS_P1;SDS_P2;PMS_P1;PMS_P2;Temp;Humidity;BMP_temperature;BMP_pressure;BME280_temperature;BME280_humidity;BME280_pressure;Samples;Min_cycle;Max_cycle;Signal;HPM_P1;HPM_P2
2023/09/14 00:00:29;;;;;;;4.75;1.77;;;;;;;;;;5069007;28;20100;-86
2023/09/14 00:02:55;;;;;;;2.58;1.20;;;;;;;;;;5077160;28;20347;-84
2023/09/14 00:05:20;;;;;;;7.28;1.63;;;;;;;;;;5077051;28;20111;-86
2023/09/14 00:07:45;;;;;;;3.03;1.25;;;;;;;;;;5075322;28;20012;-87
2023/09/14 00:10:14;;;;;;;6.22;1.15;;;;;;;;;;5068090;28;20460;-86
2023/09/14 00:12:39;;;;;;;2.92;1.25;;;;;;;;;;5069117;28;20391;-86
2023/09/14 00:15:04;;;;;;;2.33;1.20;;;;;;;;;;5068518;28;20120;-86
2023/09/14 00:17:30;;;;;;;3.15;1.30;;;;;;;;;;5066574;28;20063;-87
2023/09/14 00:19:56;;;;;;;2.13;1.23;;;;;;;;;;5074718;28;20044;-86
2023/09/14 00:22:22;;;;;;;2.92;1.20;;;;;;;;;;5065207;28;20051;-87
2023/09/14 00:24:47;;;;;;;2.78;1.40;;;;;;;;;;5070662;28;20024;-87
2023/09/14 00:27:12;;;;;;;5.65;1.60;;;;;;;;;;5074760;28;20078;-87
2023/09/14 00:29:38;;;;;;;3.78;1.45;;;;;;;;;;5061027;28;20029;-87
2023/09/14 00:32:03;;;;;;;3.47;1.40;;;;;;;;;;5073907;28;20069;-87
2023/09/14 00:34:28;;;;;;;3.83;1.50;;;;;;;;;;5074543;28;20416;-86
2023/09/14 00:36:54;;;;;;;6.25;1.67;;;;;;;;;;5070887;28;20021;-87
2023/09/14 00:39:19;;;;;;;3.92;1.40;;;;;;;;;;5063632;28;20091;-87
2023/09/14 00:41:46;;;;;;;3.10;1.10;;;;;;;;;;5063094;28;20040;-86
2023/09/14 00:44:15;;;;;;;2.50;1.20;;;;;;;;;;5071744;28;20067;-86
2023/09/14 00:46:40;;;;;;;4.07;1.52;;;;;;;;;;5074077;28;20039;-86
2023/09/14 00:49:05;;;;;;;2.97;1.25;;;;;;;;;;5074186;28;20016;-87
2023/09/14 00:51:33;;;;;;;3.72;1.20;;;;;;;;;;5066640;28;20033;-87
2023/09/14 00:53:59;;;;;;;5.05;1.20;;;;;;;;;;5068973;28;20016;-86
2023/09/14 00:56:28;;;;;;;2.88;1.38;;;;;;;;;;5054249;28;20071;-86
2023/09/14 00:58:54;;;;;;;5.40;1.27;;;;;;;;;;5066680;28;20013;-86
2023/09/14 01:01:19;;;;;;;3.22;1.48;;;;;;;;;;5074503;28;20062;-86
2023/09/14 01:03:45;;;;;;;2.78;1.20;;;;;;;;;;5074992;28;20024;-86
2023/09/14 01:06:11;;;;;;;5.95;1.10;;;;;;;;;;5074702;28;20020;-86
2023/09/14 01:08:36;;;;;;;6.93;1.00;;;;;;;;;;5074852;28;20054;-87
2023/09/14 01:11:01;;;;;;;2.78;1.40;;;;;;;;;;5072752;28;20028;-86
2023/09/14 01:13:59;;;;;;;3.15;1.40;;;;;;;;;;5068610;28;20025;-85
2023/09/14 01:16:32;;;;;;;3.17;1.58;;;;;;;;;;5044024;28;20048;-86
2023/09/14 01:19:03;;;;;;;2.67;1.00;;;;;;;;;;5076675;28;20012;-85
2023/09/14 01:21:47;;;;;;;2.55;1.30;;;;;;;;;;5076116;28;20030;-85
2023/09/14 01:24:22;;;;;;;2.50;1.10;;;;;;;;;;5063869;28;20028;-86
2023/09/14 01:26:50;;;;;;;6.90;1.48;;;;;;;;;;5074538;28;20013;-86
2023/09/14 01:29:15;;;;;;;3.33;1.10;;;;;;;;;;5063319;28;20017;-85
2023/09/14 01:31:42;;;;;;;2.75;1.13;;;;;;;;;;5056481;28;20017;-86
2023/09/14 01:34:07;;;;;;;3.67;1.10;;;;;;;;;;5071689;28;20418;-86
2023/09/14 01:36:32;;;;;;;2.72;1.17;;;;;;;;;;5073456;28;20017;-86
2023/09/14 01:38:59;;;;;;;4.50;1.25;;;;;;;;;;5060719;28;20024;-86
2023/09/14 01:41:25;;;;;;;6.93;1.25;;;;;;;;;;5053381;28;20032;-86
2023/09/14 01:43:53;;;;;;;4.60;1.40;;;;;;;;;;5070734;28;20017;-86
2023/09/14 01:46:18;;;;;;;5.60;1.17;;;;;;;;;;5072806;28;20043;-86
2023/09/14 01:48:44;;;;;;;3.28;1.20;;;;;;;;;;5058576;28;20017;-86
2023/09/14 01:51:09;;;;;;;3.70;1.10;;;;;;;;;;5073080;28;20163;-86
2023/09/14 01:53:35;;;;;;;6.15;1.20;;;;;;;;;;5072847;28;20032;-86
2023/09/14 01:56:00;;;;;;;2.88;1.10;;;;;;;;;;5072680;28;20405;-86
2023/09/14 01:58:25;;;;;;;4.63;1.02;;;;;;;;;;5061337;28;20049;-84
2023/09/14 02:00:51;;;;;;;2.92;0.93;;;;;;;;;;5069982;28;20440;-84
2023/09/14 02:03:16;;;;;;;4.40;1.02;;;;;;;;;;5072903;28;20139;-85
2023/09/14 02:05:41;;;;;;;4.25;0.90;;;;;;;;;;5072421;28;20027;-86
2023/09/14 02:08:07;;;;;;;2.75;1.08;;;;;;;;;;5072730;28;20537;-86
2023/09/14 02:10:32;;;;;;;4.45;1.10;;;;;;;;;;5063343;28;20025;-86
2023/09/14 02:12:57;;;;;;;2.50;1.20;;;;;;;;;;5068559;28;20032;-85
2023/09/14 02:15:23;;;;;;;1.92;1.00;;;;;;;;;;5072764;28;20055;-86
2023/09/14 02:17:48;;;;;;;2.50;1.10;;;;;;;;;;5069903;28;20100;-85
2023/09/14 02:20:14;;;;;;;2.72;1.27;;;;;;;;;;5073158;28;20078;-86
2023/09/14 02:22:40;;;;;;;4.90;1.10;;;;;;;;;;5071516;28;20142;-87
2023/09/14 02:25:05;;;;;;;2.42;0.90;;;;;;;;;;5063148;28;20031;-86
2023/09/14 02:27:30;;;;;;;1.70;1.10;;;;;;;;;;5074343;28;20016;-86
2023/09/14 02:29:56;;;;;;;2.58;1.13;;;;;;;;;;5074011;28;20460;-86
2023/09/14 02:32:21;;;;;;;2.00;1.08;;;;;;;;;;5065626;28;20108;-85
2023/09/14 02:34:50;;;;;;;2.75;1.05;;;;;;;;;;5061662;28;20082;-85
2023/09/14 02:37:16;;;;;;;10.02;1.20;;;;;;;;;;5071015;28;20035;-86
2023/09/14 02:39:41;;;;;;;2.50;1.15;;;;;;;;;;5074121;28;20021;-85
2023/09/14 02:42:06;;;;;;;4.45;1.10;;;;;;;;;;5061361;28;20040;-86
2023/09/14 02:44:32;;;;;;;1.83;0.98;;;;;;;;;;5062640;28;20018;-86
2023/09/14 02:46:57;;;;;;;2.05;1.08;;;;;;;;;;5070073;28;20080;-86
2023/09/14 02:49:22;;;;;;;3.00;1.02;;;;;;;;;;5072367;28;20012;-85
2023/09/14 02:51:48;;;;;;;3.10;0.80;;;;;;;;;;5068301;28;20021;-86
2023/09/14 02:54:13;;;;;;;2.25;0.90;;;;;;;;;;5052506;28;20507;-86
2023/09/14 02:56:40;;;;;;;2.78;0.75;;;;;;;;;;5052285;28;20537;-84
2023/09/14 02:59:05;;;;;;;4.40;0.88;;;;;;;;;;5057213;28;20402;-86
2023/09/14 03:01:31;;;;;;;1.73;0.93;;;;;;;;;;5071763;28;20028;-87
2023/09/14 03:03:57;;;;;;;1.35;0.70;;;;;;;;;;5071843;28;20013;-86
2023/09/14 03:06:22;;;;;;;4.75;0.85;;;;;;;;;;5072234;28;20020;-86
2023/09/14 03:08:48;;;;;;;2.58;1.00;;;;;;;;;;5071040;28;20100;-87
2023/09/14 03:11:13;;;;;;;2.92;1.00;;;;;;;;;;5067526;28;20024;-86
2023/09/14 03:13:38;;;;;;;4.05;0.80;;;;;;;;;;5071966;28;20033;-85
2023/09/14 03:16:03;;;;;;;1.77;0.73;;;;;;;;;;5071563;28;20029;-85
2023/09/14 03:18:32;;;;;;;5.68;1.27;;;;;;;;;;5071698;28;20424;-86
2023/09/14 03:20:57;;;;;;;2.70;1.02;;;;;;;;;;5071507;28;20040;-86
2023/09/14 03:23:25;;;;;;;6.05;1.17;;;;;;;;;;5071967;28;20117;-86
2023/09/14 03:25:53;;;;;;;4.55;0.90;;;;;;;;;;5070608;28;20027;-86
2023/09/14 03:28:19;;;;;;;2.47;1.00;;;;;;;;;;5059833;28;20471;-85
2023/09/14 03:30:44;;;;;;;5.60;1.45;;;;;;;;;;5069599;28;20456;-86
2023/09/14 03:33:10;;;;;;;6.80;0.80;;;;;;;;;;5059060;28;20013;-85
2023/09/14 03:35:36;;;;;;;4.80;1.02;;;;;;;;;;5071793;28;20013;-86
2023/09/14 03:38:04;;;;;;;5.60;1.20;;;;;;;;;;5068209;28;20052;-86
2023/09/14 03:40:30;;;;;;;3.72;1.17;;;;;;;;;;5063418;28;20111;-86
2023/09/14 03:42:55;;;;;;;3.28;1.08;;;;;;;;;;5064372;28;20510;-86
2023/09/14 03:45:20;;;;;;;2.38;1.10;;;;;;;;;;5072304;28;20059;-86
2023/09/14 03:47:49;;;;;;;2.08;0.95;;;;;;;;;;5072871;28;20017;-85
2023/09/14 03:50:14;;;;;;;5.72;1.10;;;;;;;;;;5070914;28;20044;-86
2023/09/14 03:52:42;;;;;;;2.28;1.00;;;;;;;;;;5064968;28;20035;-86
2023/09/14 03:55:08;;;;;;;3.92;1.38;;;;;;;;;;5076634;28;20033;-86
2023/09/14 03:57:33;;;;;;;3.05;1.02;;;;;;;;;;5070626;28;20032;-86
2023/09/14 03:59:59;;;;;;;3.53;0.90;;;;;;;;;;5069851;28;20016;-85
2023/09/14 04:02:24;;;;;;;7.13;1.27;;;;;;;;;;5077752;28;20060;-86
2023/09/14 04:04:50;;;;;;;10.43;1.00;;;;;;;;;;5077828;28;20021;-86
2023/09/14 04:07:18;;;;;;;1.40;0.93;;;;;;;;;;5077461;28;20021;-86
2023/09/14 04:09:43;;;;;;;6.20;1.23;;;;;;;;;;5076197;28;20017;-86
2023/09/14 04:12:09;;;;;;;3.47;0.98;;;;;;;;;;5075608;28;20021;-86
2023/09/14 04:14:34;;;;;;;3.22;1.20;;;;;;;;;;5075036;28;20025;-86
2023/09/14 04:17:00;;;;;;;5.07;1.15;;;;;;;;;;5075033;28;20399;-86
2023/09/14 04:19:29;;;;;;;5.50;1.25;;;;;;;;;;5070383;28;20101;-86
2023/09/14 04:21:54;;;;;;;3.78;1.17;;;;;;;;;;5055696;28;20059;-86
2023/09/14 04:24:20;;;;;;;3.47;1.38;;;;;;;;;;5072521;28;20452;-86
2023/09/14 04:26:45;;;;;;;2.90;1.20;;;;;;;;;;5075171;28;20028;-86
2023/09/14 04:29:11;;;;;;;3.28;1.30;;;;;;;;;;5060891;28;20025;-86
2023/09/14 04:31:36;;;;;;;7.15;1.25;;;;;;;;;;5074819;28;20135;-86
2023/09/14 04:34:04;;;;;;;4.15;1.10;;;;;;;;;;5075228;28;20096;-86
2023/09/14 04:36:31;;;;;;;4.57;1.00;;;;;;;;;;5060235;28;20017;-86
2023/09/14 04:38:56;;;;;;;4.75;1.20;;;;;;;;;;5074323;28;20142;-86
2023/09/14 04:41:21;;;;;;;4.03;1.10;;;;;;;;;;5073879;28;20024;-86
2023/09/14 04:43:47;;;;;;;4.63;1.20;;;;;;;;;;5074263;28;20016;-86
2023/09/14 04:46:12;;;;;;;6.90;1.52;;;;;;;;;;5074430;28;20131;-86
2023/09/14 04:48:38;;;;;;;2.42;1.05;;;;;;;;;;5073941;28;20037;-86
2023/09/14 04:51:03;;;;;;;3.05;1.48;;;;;;;;;;5072326;28;20044;-86
2023/09/14 04:53:29;;;;;;;4.57;1.60;;;;;;;;;;5074242;28;20425;-86
2023/09/14 04:55:54;;;;;;;4.63;1.55;;;;;;;;;;5074288;28;20474;-86
2023/09/14 04:58:20;;;;;;;2.67;1.35;;;;;;;;;;5074514;28;20463;-86
2023/09/14 05:00:49;;;;;;;5.75;1.77;;;;;;;;;;5073266;28;20054;-86
2023/09/14 05:03:14;;;;;;;2.97;1.42;;;;;;;;;;5074638;28;20406;-86
2023/09/14 05:05:40;;;;;;;3.20;1.38;;;;;;;;;;5070973;28;20020;-85
2023/09/14 05:08:06;;;;;;;6.80;1.40;;;;;;;;;;5054222;28;20433;-86
2023/09/14 05:10:31;;;;;;;4.55;1.70;;;;;;;;;;5060460;28;20024;-85
2023/09/14 05:12:57;;;;;;;2.67;1.40;;;;;;;;;;5074749;28;20020;-86
2023/09/14 05:15:22;;;;;;;4.28;1.60;;;;;;;;;;5061586;28;20044;-85
2023/09/14 05:17:50;;;;;;;7.80;1.67;;;;;;;;;;5073681;28;20078;-85
2023/09/14 05:20:19;;;;;;;6.70;1.65;;;;;;;;;;5074134;28;20132;-86
2023/09/14 05:22:44;;;;;;;5.65;1.77;;;;;;;;;;5075475;28;20043;-85
2023/09/14 05:25:10;;;;;;;8.48;1.48;;;;;;;;;;5077031;28;20020;-85
2023/09/14 05:27:39;;;;;;;3.33;1.83;;;;;;;;;;5076644;28;20028;-86
2023/09/14 05:30:11;;;;;;;3.58;1.50;;;;;;;;;;5075114;28;20122;-86
2023/09/14 05:32:41;;;;;;;5.40;1.75;;;;;;;;;;5059579;28;20180;-86
2023/09/14 05:35:06;;;;;;;3.17;1.63;;;;;;;;;;5074687;28;20055;-86
2023/09/14 05:37:33;;;;;;;5.40;1.75;;;;;;;;;;5060455;28;20037;-85
2023/09/14 05:39:58;;;;;;;3.50;1.15;;;;;;;;;;5072613;28;20043;-86
2023/09/14 05:42:23;;;;;;;3.30;1.73;;;;;;;;;;5073938;28;20040;-84
2023/09/14 05:44:49;;;;;;;3.95;1.50;;;;;;;;;;5073736;28;20016;-85
2023/09/14 05:47:14;;;;;;;4.60;1.35;;;;;;;;;;5070752;28;20021;-85
2023/09/14 05:49:40;;;;;;;5.57;1.80;;;;;;;;;;5064535;28;20016;-85
2023/09/14 05:52:07;;;;;;;2.45;1.25;;;;;;;;;;5069911;28;20020;-85
2023/09/14 05:54:33;;;;;;;2.80;1.27;;;;;;;;;;5063899;28;20420;-86
2023/09/14 05:56:58;;;;;;;3.53;1.65;;;;;;;;;;5071495;28;20047;-86
2023/09/14 05:59:23;;;;;;;4.95;1.80;;;;;;;;;;5069418;28;20078;-86
2023/09/14 06:01:51;;;;;;;3.88;1.73;;;;;;;;;;5073068;28;20031;-87
2023/09/14 06:04:17;;;;;;;4.85;2.00;;;;;;;;;;5058927;28;20020;-87
2023/09/14 06:06:45;;;;;;;5.93;1.55;;;;;;;;;;5073396;28;20017;-87
2023/09/14 06:09:10;;;;;;;4.18;1.77;;;;;;;;;;5072098;28;20506;-87
2023/09/14 06:11:36;;;;;;;3.42;1.80;;;;;;;;;;5068449;28;20025;-86
2023/09/14 06:14:01;;;;;;;3.72;1.80;;;;;;;;;;5060713;28;20368;-87
2023/09/14 06:16:27;;;;;;;4.78;1.90;;;;;;;;;;5063585;28;20025;-86
2023/09/14 06:18:52;;;;;;;8.98;2.05;;;;;;;;;;5065795;28;20009;-87
2023/09/14 06:21:18;;;;;;;6.35;2.80;;;;;;;;;;5057158;28;20021;-87
2023/09/14 06:23:43;;;;;;;6.22;3.00;;;;;;;;;;5060602;28;20112;-87
2023/09/14 06:26:08;;;;;;;7.35;3.45;;;;;;;;;;5072092;28;20396;-87
2023/09/14 06:28:34;;;;;;;6.28;3.00;;;;;;;;;;5070053;28;20022;-87
2023/09/14 06:30:59;;;;;;;8.13;2.83;;;;;;;;;;5063113;28;20033;-87
2023/09/14 06:33:25;;;;;;;6.25;2.97;;;;;;;;;;5066146;28;20024;-87
2023/09/14 06:35:52;;;;;;;9.20;3.75;;;;;;;;;;5067204;28;20463;-87
2023/09/14 06:38:18;;;;;;;8.85;4.40;;;;;;;;;;5064825;28;20037;-87
2023/09/14 06:40:43;;;;;;;10.95;5.25;;;;;;;;;;5069533;28;20025;-87
2023/09/14 06:43:08;;;;;;;12.95;5.72;;;;;;;;;;5073627;28;20025;-84
2023/09/14 06:45:34;;;;;;;11.43;6.15;;;;;;;;;;5073025;28;20373;-87
2023/09/14 06:48:00;;;;;;;13.55;6.80;;;;;;;;;;5074675;28;20456;-86
2023/09/14 06:50:25;;;;;;;11.82;6.25;;;;;;;;;;5073124;28;20021;-85
2023/09/14 06:52:50;;;;;;;12.35;6.47;;;;;;;;;;5071529;28;20025;-87
2023/09/14 06:55:16;;;;;;;23.05;7.70;;;;;;;;;;5070974;28;20451;-84
2023/09/14 06:57:41;;;;;;;17.63;7.47;;;;;;;;;;5070349;28;20440;-86
2023/09/14 07:00:14;;;;;;;17.75;7.60;;;;;;;;;;5059029;28;20021;-86
2023/09/14 07:02:40;;;;;;;15.05;7.93;;;;;;;;;;5058850;28;20066;-86
2023/09/14 07:05:05;;;;;;;14.50;7.53;;;;;;;;;;5072970;28;20016;-87
2023/09/14 07:07:31;;;;;;;17.42;8.23;;;;;;;;;;5070752;28;20013;-86
2023/09/14 07:09:56;;;;;;;13.55;7.80;;;;;;;;;;5061260;28;20012;-86
2023/09/14 07:12:21;;;;;;;19.65;8.05;;;;;;;;;;5069656;28;20107;-87
2023/09/14 07:14:47;;;;;;;17.45;8.63;;;;;;;;;;5070858;28;20120;-86
2023/09/14 07:17:12;;;;;;;17.65;7.78;;;;;;;;;;5059967;28;20029;-85
2023/09/14 07:19:37;;;;;;;17.42;8.18;;;;;;;;;;5072314;28;20120;-86
2023/09/14 07:22:03;;;;;;;12.80;6.47;;;;;;;;;;5071368;28;20025;-86
2023/09/14 07:24:28;;;;;;;12.95;6.82;;;;;;;;;;5061663;28;20456;-86
2023/09/14 07:26:54;;;;;;;14.60;7.25;;;;;;;;;;5072869;28;20020;-86
2023/09/14 07:29:19;;;;;;;16.17;7.25;;;;;;;;;;5075837;28;20474;-86
2023/09/14 07:31:47;;;;;;;14.10;6.65;;;;;;;;;;5075537;28;20016;-86
2023/09/14 07:34:16;;;;;;;16.88;7.47;;;;;;;;;;5071210;28;20497;-87
2023/09/14 07:36:41;;;;;;;13.57;7.07;;;;;;;;;;5071945;28;20019;-87
2023/09/14 07:39:07;;;;;;;13.25;6.93;;;;;;;;;;5073762;28;20025;-86
2023/09/14 07:41:32;;;;;;;18.30;6.93;;;;;;;;;;5077729;28;20032;-87
2023/09/14 07:43:58;;;;;;;14.07;7.03;;;;;;;;;;5068691;28;20031;-86
2023/09/14 07:46:23;;;;;;;18.27;6.95;;;;;;;;;;5067964;28;20016;-86
2023/09/14 07:48:48;;;;;;;15.93;6.55;;;;;;;;;;5074874;28;20472;-86
2023/09/14 07:51:21;;;;;;;13.48;6.05;;;;;;;;;;5058068;28;20406;-86
2023/09/14 07:53:46;;;;;;;29.13;8.23;;;;;;;;;;5072727;28;20025;-85
2023/09/14 07:56:12;;;;;;;14.10;7.18;;;;;;;;;;5068905;28;20043;-85
2023/09/14 07:58:37;;;;;;;11.45;6.65;;;;;;;;;;5075320;28;20029;-86
2023/09/14 08:01:02;;;;;;;14.88;6.80;;;;;;;;;;5076239;28;20025;-87
2023/09/14 08:03:28;;;;;;;15.35;7.22;;;;;;;;;;5069177;28;20186;-87
2023/09/14 08:05:53;;;;;;;14.25;7.20;;;;;;;;;;5075841;28;20146;-87
2023/09/14 08:08:19;;;;;;;15.20;7.47;;;;;;;;;;5071391;28;20032;-86
2023/09/14 08:10:55;;;;;;;14.15;7.35;;;;;;;;;;5075143;28;20485;-86
2023/09/14 08:13:21;;;;;;;13.77;7.18;;;;;;;;;;5066124;28;20029;-87
2023/09/14 08:15:46;;;;;;;13.43;5.38;;;;;;;;;;5065214;28;20159;-87
2023/09/14 08:18:11;;;;;;;16.98;7.00;;;;;;;;;;5068009;28;20094;-87
2023/09/14 08:20:44;;;;;;;16.88;7.85;;;;;;;;;;5069123;28;20090;-87
2023/09/14 08:23:10;;;;;;;15.27;6.65;;;;;;;;;;5075223;28;20052;-87
2023/09/14 08:25:43;;;;;;;14.32;7.75;;;;;;;;;;5066230;28;20025;-86
2023/09/14 08:28:13;;;;;;;18.00;8.57;;;;;;;;;;5072332;28;20021;-86
2023/09/14 08:30:40;;;;;;;18.05;8.20;;;;;;;;;;5070315;28;20017;-87
2023/09/14 08:33:05;;;;;;;17.60;8.95;;;;;;;;;;5065584;28;20381;-86
2023/09/14 08:35:31;;;;;;;20.00;8.77;;;;;;;;;;5068942;28;20020;-87
2023/09/14 08:37:57;;;;;;;17.92;8.93;;;;;;;;;;5063279;28;20438;-85
2023/09/14 08:40:23;;;;;;;16.27;8.88;;;;;;;;;;5077378;28;20104;-86
2023/09/14 08:42:49;;;;;;;21.30;9.73;;;;;;;;;;5073803;28;20027;-87
2023/09/14 08:45:16;;;;;;;17.35;7.55;;;;;;;;;;5068148;28;20017;-87
2023/09/14 08:47:43;;;;;;;22.55;10.25;;;;;;;;;;5065124;28;20032;-87
2023/09/14 08:50:13;;;;;;;20.67;9.10;;;;;;;;;;5066079;28;20434;-87
2023/09/14 08:52:39;;;;;;;16.10;7.88;;;;;;;;;;5067968;28;20313;-88
2023/09/14 08:55:05;;;;;;;20.55;8.77;;;;;;;;;;5072771;28;20559;-88
2023/09/14 08:57:30;;;;;;;14.05;6.38;;;;;;;;;;5074262;28;20048;-87
2023/09/14 08:59:59;;;;;;;18.65;7.80;;;;;;;;;;5054542;28;20017;-87
2023/09/14 09:02:27;;;;;;;15.80;5.93;;;;;;;;;;5073015;28;20328;-86
2023/09/14 09:04:52;;;;;;;14.38;7.10;;;;;;;;;;5073782;28;20021;-86
2023/09/14 09:07:17;;;;;;;12.35;5.32;;;;;;;;;;5070885;28;20100;-84
2023/09/14 09:09:43;;;;;;;12.60;6.90;;;;;;;;;;5071896;28;20501;-85
2023/09/14 09:12:09;;;;;;;12.55;6.32;;;;;;;;;;5063119;28;20666;-83
2023/09/14 09:14:37;;;;;;;14.45;7.00;;;;;;;;;;5068650;28;20021;-86
2023/09/14 09:17:06;;;;;;;13.15;6.85;;;;;;;;;;5073571;28;20100;-85
2023/09/14 09:19:44;;;;;;;16.65;7.00;;;;;;;;;;5071153;28;20110;-85
2023/09/14 09:22:10;;;;;;;11.15;5.70;;;;;;;;;;5071304;28;20020;-86
2023/09/14 09:24:37;;;;;;;11.65;5.47;;;;;;;;;;5069224;28;20073;-86
2023/09/14 09:27:23;;;;;;;11.73;5.22;;;;;;;;;;5068448;28;20073;-86
2023/09/14 09:29:50;;;;;;;9.93;5.22;;;;;;;;;;5076404;28;20009;-85
2023/09/14 09:32:21;;;;;;;11.35;5.20;;;;;;;;;;5072446;28;20507;-85
2023/09/14 09:34:47;;;;;;;11.05;4.82;;;;;;;;;;5053277;28;20032;-83
2023/09/14 09:37:12;;;;;;;10.65;5.35;;;;;;;;;;5063873;28;20029;-86
2023/09/14 09:39:37;;;;;;;13.25;6.18;;;;;;;;;;5059902;28;20108;-85
2023/09/14 09:42:06;;;;;;;9.43;4.47;;;;;;;;;;5057782;28;20039;-85
2023/09/14 09:44:31;;;;;;;13.88;4.35;;;;;;;;;;5065520;28;20051;-85
2023/09/14 09:46:57;;;;;;;10.63;4.43;;;;;;;;;;5070334;28;20021;-85
2023/09/14 09:49:24;;;;;;;9.63;3.40;;;;;;;;;;5073793;28;20017;-85
2023/09/14 09:51:50;;;;;;;9.25;3.60;;;;;;;;;;5072390;28;20021;-84
2023/09/14 09:54:18;;;;;;;10.13;3.03;;;;;;;;;;5064333;28;20090;-86
2023/09/14 09:56:44;;;;;;;6.57;3.05;;;;;;;;;;5072162;28;20021;-86
2023/09/14 09:59:10;;;;;;;8.75;2.88;;;;;;;;;;5059465;28;20015;-86
2023/09/14 10:01:44;;;;;;;11.60;2.70;;;;;;;;;;5061678;28;20025;-86
2023/09/14 10:04:10;;;;;;;9.73;3.15;;;;;;;;;;5090427;28;20025;-86
2023/09/14 10:06:36;;;;;;;9.60;3.28;;;;;;;;;;5056830;28;20029;-86
2023/09/14 10:09:16;;;;;;;4.70;2.20;;;;;;;;;;5066421;28;20020;-86
2023/09/14 10:11:41;;;;;;;5.90;2.63;;;;;;;;;;5089322;28;20478;-86
2023/09/14 10:14:10;;;;;;;4.10;1.80;;;;;;;;;;5072175;28;20111;-86
2023/09/14 10:16:42;;;;;;;7.20;2.00;;;;;;;;;;5062614;28;20060;-86
2023/09/14 10:19:07;;;;;;;;;;;;;;;;;;5054530;28;20025;-85
2023/09/14 10:21:33;;;;;;;5.43;1.77;;;;;;;;;;5067534;28;19915;-86
2023/09/14 10:23:59;;;;;;;2.97;1.45;;;;;;;;;;5071810;28;20047;-86
2023/09/14 10:26:25;;;;;;;5.22;2.20;;;;;;;;;;5063876;28;20060;-84
2023/09/14 10:28:51;;;;;;;6.97;2.92;;;;;;;;;;5065419;28;20452;-85
2023/09/14 10:31:16;;;;;;;4.22;2.15;;;;;;;;;;5064423;28;20100;-85
2023/09/14 10:33:45;;;;;;;7.50;2.65;;;;;;;;;;5071847;28;20109;-86
2023/09/14 10:36:11;;;;;;;7.35;2.40;;;;;;;;;;5072084;28;20070;-85
2023/09/14 10:38:42;;;;;;;6.70;2.38;;;;;;;;;;5065369;28;20016;-85
2023/09/14 10:41:07;;;;;;;2.50;1.50;;;;;;;;;;5063998;28;20375;-85
2023/09/14 10:43:39;;;;;;;3.28;1.50;;;;;;;;;;5064194;28;20096;-86
2023/09/14 10:46:06;;;;;;;;;;;;;;;;;;5072600;28;20423;-87
2023/09/14 10:48:32;;;;;;;7.10;2.08;;;;;;;;;;5071953;28;19908;-88
2023/09/14 10:50:58;;;;;;;4.68;1.88;;;;;;;;;;5065543;28;20029;-85
2023/09/14 10:53:24;;;;;;;6.00;2.03;;;;;;;;;;5066456;28;20060;-85
2023/09/14 10:55:49;;;;;;;5.18;2.00;;;;;;;;;;5074068;28;20089;-85
2023/09/14 10:58:17;;;;;;;7.53;1.75;;;;;;;;;;5073072;28;20488;-85
2023/09/14 11:00:43;;;;;;;4.43;1.40;;;;;;;;;;5075341;28;20028;-84
2023/09/14 11:03:09;;;;;;;8.07;1.77;;;;;;;;;;5068236;28;20025;-85
2023/09/14 11:05:47;;;;;;;5.68;1.55;;;;;;;;;;5075937;28;20021;-85
2023/09/14 11:08:14;;;;;;;5.43;1.67;;;;;;;;;;5062206;28;20537;-85
2023/09/14 11:10:52;;;;;;;3.42;1.67;;;;;;;;;;5072342;28;20020;-85
2023/09/14 11:13:20;;;;;;;4.38;1.70;;;;;;;;;;5076940;28;20102;-85
2023/09/14 11:15:55;;;;;;;3.78;1.45;;;;;;;;;;5075544;28;20024;-85
2023/09/14 11:18:32;;;;;;;6.35;1.60;;;;;;;;;;5075197;28;20415;-85
2023/09/14 11:20:57;;;;;;;2.35;1.30;;;;;;;;;;5060940;28;20447;-85
2023/09/14 11:23:31;;;;;;;2.83;1.30;;;;;;;;;;5063202;28;20035;-86
2023/09/14 11:25:56;;;;;;;2.80;1.20;;;;;;;;;;5074105;28;20433;-85
2023/09/14 11:28:22;;;;;;;4.45;1.30;;;;;;;;;;5075263;28;20040;-85
2023/09/14 11:30:48;;;;;;;4.97;1.67;;;;;;;;;;5075809;28;20017;-84
2023/09/14 11:33:14;;;;;;;5.88;1.38;;;;;;;;;;5076515;28;20356;-85
2023/09/14 11:35:45;;;;;;;5.65;1.48;;;;;;;;;;5076227;28;20073;-85
2023/09/14 11:38:16;;;;;;;4.03;1.17;;;;;;;;;;5074042;28;20380;-85
2023/09/14 11:40:42;;;;;;;2.20;1.00;;;;;;;;;;5057146;28;20387;-85
2023/09/14 11:43:28;;;;;;;3.10;1.38;;;;;;;;;;5074893;28;20040;-85
2023/09/14 11:45:57;;;;;;;5.57;1.30;;;;;;;;;;5074719;28;20019;-85
2023/09/14 11:48:23;;;;;;;4.55;1.23;;;;;;;;;;5074333;28;20376;-85
2023/09/14 11:50:48;;;;;;;7.53;1.63;;;;;;;;;;5074843;28;20009;-84
2023/09/14 11:53:16;;;;;;;3.58;1.38;;;;;;;;;;5070652;28;20029;-85
2023/09/14 11:55:41;;;;;;;3.17;1.52;;;;;;;;;;5074405;28;20398;-85
2023/09/14 11:58:06;;;;;;;4.72;1.58;;;;;;;;;;5063336;28;20042;-85
2023/09/14 12:00:39;;;;;;;4.60;1.20;;;;;;;;;;5071892;28;20353;-85
2023/09/14 12:03:07;;;;;;;11.68;1.35;;;;;;;;;;5073479;28;21270;-85
2023/09/14 12:05:32;;;;;;;3.13;1.33;;;;;;;;;;5074381;28;20040;-85
2023/09/14 12:07:58;;;;;;;5.78;1.48;;;;;;;;;;5074394;28;20032;-85
2023/09/14 12:10:23;;;;;;;7.45;1.40;;;;;;;;;;5070315;28;20017;-85
2023/09/14 12:12:49;;;;;;;5.57;1.50;;;;;;;;;;5067753;28;20053;-85
2023/09/14 12:15:21;;;;;;;5.03;1.33;;;;;;;;;;5065159;28;20033;-85
2023/09/14 12:17:50;;;;;;;4.35;1.30;;;;;;;;;;5074577;28;20028;-84
2023/09/14 12:20:16;;;;;;;6.25;1.40;;;;;;;;;;5075153;28;20024;-85
2023/09/14 12:22:42;;;;;;;5.22;1.10;;;;;;;;;;5074808;28;20032;-85
2023/09/14 12:25:08;;;;;;;3.50;1.30;;;;;;;;;;5066445;28;20490;-85
2023/09/14 12:27:35;;;;;;;2.08;1.30;;;;;;;;;;5070167;28;20020;-85
2023/09/14 12:30:03;;;;;;;2.25;1.20;;;;;;;;;;5074932;28;20008;-85
2023/09/14 12:32:28;;;;;;;3.15;1.67;;;;;;;;;;5075231;28;20536;-84
2023/09/14 12:34:54;;;;;;;4.95;1.40;;;;;;;;;;5075562;28;20024;-85
2023/09/14 12:37:20;;;;;;;5.53;1.45;;;;;;;;;;5062131;28;20111;-85
2023/09/14 12:39:51;;;;;;;5.45;1.10;;;;;;;;;;5071232;28;20059;-85
2023/09/14 12:42:23;;;;;;;2.13;0.90;;;;;;;;;;5074225;28;20128;-86
2023/09/14 12:44:49;;;;;;;5.22;1.10;;;;;;;;;;5064032;28;20072;-85
2023/09/14 12:47:14;;;;;;;2.10;1.23;;;;;;;;;;5059179;28;20031;-85
2023/09/14 12:49:40;;;;;;;2.40;1.10;;;;;;;;;;5073665;28;20016;-85
2023/09/14 12:52:06;;;;;;;1.88;1.20;;;;;;;;;;5074956;28;20096;-86
2023/09/14 12:54:32;;;;;;;2.13;1.10;;;;;;;;;;5075071;28;20725;-86
2023/09/14 12:56:57;;;;;;;3.22;1.25;;;;;;;;;;5074314;28;20020;-86
2023/09/14 12:59:22;;;;;;;2.45;1.20;;;;;;;;;;5072968;28;20025;-85
2023/09/14 13:01:48;;;;;;;3.75;0.93;;;;;;;;;;5073243;28;20036;-85
2023/09/14 13:04:14;;;;;;;6.15;1.60;;;;;;;;;;5067742;28;20017;-84
2023/09/14 13:06:39;;;;;;;7.15;1.70;;;;;;;;;;5064754;28;20055;-85
2023/09/14 13:09:08;;;;;;;1.70;1.17;;;;;;;;;;5074621;28;20117;-85
2023/09/14 13:11:36;;;;;;;2.35;1.20;;;;;;;;;;5069261;28;20330;-86
2023/09/14 13:14:02;;;;;;;3.75;1.20;;;;;;;;;;5071442;28;20020;-86
2023/09/14 13:16:32;;;;;;;1.63;1.00;;;;;;;;;;5072727;28;20037;-86
2023/09/14 13:18:58;;;;;;;4.95;1.00;;;;;;;;;;5074689;28;20086;-86
2023/09/14 13:21:24;;;;;;;1.30;0.80;;;;;;;;;;5073202;28;20029;-86
2023/09/14 13:23:50;;;;;;;2.25;1.02;;;;;;;;;;5072917;28;20070;-86
2023/09/14 13:26:15;;;;;;;6.60;1.10;;;;;;;;;;5074245;28;20012;-86
2023/09/14 13:28:41;;;;;;;3.90;1.25;;;;;;;;;;5062590;28;20032;-86
2023/09/14 13:31:10;;;;;;;5.22;1.42;;;;;;;;;;5069075;28;20372;-86
2023/09/14 13:33:35;;;;;;;3.53;1.10;;;;;;;;;;5072014;28;20025;-85
2023/09/14 13:36:01;;;;;;;3.00;0.93;;;;;;;;;;5072974;28;20472;-86
2023/09/14 13:38:27;;;;;;;4.03;1.38;;;;;;;;;;5061437;28;20395;-86
2023/09/14 13:40:53;;;;;;;2.72;1.23;;;;;;;;;;5071954;28;20021;-86
2023/09/14 13:43:19;;;;;;;1.33;1.00;;;;;;;;;;5074017;28;20016;-86
2023/09/14 13:45:44;;;;;;;1.15;0.80;;;;;;;;;;5073057;28;20084;-86
2023/09/14 13:48:10;;;;;;;2.83;1.10;;;;;;;;;;5072873;28;20016;-86
2023/09/14 13:50:35;;;;;;;1.88;0.80;;;;;;;;;;5072085;28;20017;-86
2023/09/14 13:53:00;;;;;;;1.83;0.77;;;;;;;;;;5072529;28;20282;-86
2023/09/14 13:55:25;;;;;;;2.47;1.00;;;;;;;;;;5072135;28;20020;-86
2023/09/14 13:57:51;;;;;;;1.25;0.85;;;;;;;;;;5072572;28;20047;-85
2023/09/14 14:00:17;;;;;;;2.28;1.02;;;;;;;;;;5072954;28;20475;-86
2023/09/14 14:02:45;;;;;;;5.32;1.58;;;;;;;;;;5064733;28;20032;-86
2023/09/14 14:05:11;;;;;;;2.33;1.05;;;;;;;;;;5065605;28;20043;-86
2023/09/14 14:07:36;;;;;;;2.35;1.20;;;;;;;;;;5071080;28;20013;-85
2023/09/14 14:10:03;;;;;;;1.50;0.88;;;;;;;;;;5071661;28;20017;-85
2023/09/14 14:12:28;;;;;;;2.10;1.30;;;;;;;;;;5071645;28;20541;-85
2023/09/14 14:14:56;;;;;;;1.50;0.93;;;;;;;;;;5071731;28;20020;-86
2023/09/14 14:17:22;;;;;;;1.85;1.00;;;;;;;;;;5071069;28;20051;-86
2023/09/14 14:19:47;;;;;;;3.70;1.13;;;;;;;;;;5063726;28;20032;-86
2023/09/14 14:22:12;;;;;;;2.63;0.90;;;;;;;;;;5065151;28;20086;-86
2023/09/14 14:24:37;;;;;;;1.80;0.95;;;;;;;;;;5057359;28;20065;-86
2023/09/14 14:27:03;;;;;;;3.85;1.10;;;;;;;;;;5072804;28;20092;-86
2023/09/14 14:29:28;;;;;;;1.58;0.98;;;;;;;;;;5071617;28;20425;-86
2023/09/14 14:31:54;;;;;;;1.00;0.70;;;;;;;;;;5064231;28;20474;-86
2023/09/14 14:34:19;;;;;;;1.40;0.90;;;;;;;;;;5066253;28;20490;-86
2023/09/14 14:36:45;;;;;;;2.13;1.00;;;;;;;;;;5071773;28;20009;-86